KELZ/ELZ METAR and TAF weather

Enter ICAO airport designator
Station Type Date Time Source
KELZ METAR 2021/07/24 20:56 UTC NOAA

KELZ 242056Z AUTO 17007KT 130V200 10SM BKN045 OVC060 23/16 A3005 RMK AO2 SLP168 T02280156 58014


Station Type Date Time Source
KELZ Decoded METAR 2021/07/24 20:56 UTC NOAA

WELLSVILLE MUNICIPAL AIRPORT, NY, United States (KELZ) 42-06N 077-60W 646M
Jul 24, 2021 - 04:56 PM EDT / 2021.07.24 2056 UTC
Wind: from the S (170 degrees) at 8 MPH (7 KT) (direction variable):0
Visibility: 10 mile(s):0
Sky conditions: overcast
Temperature: 73.0 F (22.8 C)
Dew Point: 60.1 F (15.6 C)
Relative Humidity: 63%
Pressure (altimeter): 30.05 in. Hg (1017 hPa)
Pressure tendency: 0.04 inches (1.4 hPa) lower than three hours ago
ob: KELZ 242056Z AUTO 17007KT 130V200 10SM BKN045 OVC060 23/16 A3005 RMK AO2 SLP168 T02280156 58014
cycle: 21

Station Type Date Time Source
KELZ TAF UTC NOAA

Error!

Example: see airport list